Ashton, Maryland
Current Conditions -  °F | °C
As of 10:15 PM on Saturday 22 Nov 2014 (Local Time) from KGAI Reporting Station
Overcast Overcast  
Wind Chill: 42°   Ceiling: 11000
Heat Index: 45°   Visibility: 10mi
Dew Point: 16°   Wind: 5mph
Humidity: 31%   Direction: 200°SSW
Pressure: 30.28"   Gusts: NA
Location:  39.15°N, 77.01°W
Report Text: KGAI 230315Z 20004KT 10SM OVC110 07/M09 A3028 RMK AO1
Loading
Personal Weather Stations






























Interactive Weather Map New forecast layout! Learn more

10-Day Weather Forecast

Advertisements
Track Severe Weather on mobile